Grants, Grants-Milan Municipal Airport (KGNT)

NameGrants-Milan Municipal Airport
CityGrants
CountryUnited States
ICAOKGNT
IATAGNT
Altitude1992 m
CoordinatesGoogle Map
Live Air TrafficLiveATC.net
METARKGNT 201655Z AUTO 14008G16KT 10SM SCT026 BKN032 OVC065 09/05 A2984 RMK AO2 T00850050
2019-11-20 16:55:00 Wind: Southeast (140°) 4.12 m/s - Visibility: 16093.4 m - Temperature: 9 °C - Dew point: 5 °C - Humidity: 76.3% - Pressure: 1010.5 hPa

Sorry, no flights used the airport in this database.